Time;durP1;ratioP1;P1;durP2;ratioP2;P2;SDS_P1;SDS_P2;PMS_P1;PMS_P2;Temp;Humidity;BMP_temperature;BMP_pressure;BME280_temperature;BME280_humidity;BME280_pressure;Samples;Min_cycle;Max_cycle;Signal;HPM_P1;HPM_P2
2023/08/20 00:00:06;;;;;;;6.15;4.25;;;;;;;;;;4969151;28;20377;-69
2023/08/20 00:02:34;;;;;;;4.13;3.83;;;;;;;;;;4969486;28;20717;-69
2023/08/20 00:05:03;;;;;;;3.90;3.47;;;;;;;;;;4969315;28;20598;-69
2023/08/20 00:07:31;;;;;;;5.57;3.83;;;;;;;;;;4965911;28;20667;-69
2023/08/20 00:09:58;;;;;;;4.53;3.88;;;;;;;;;;4969429;28;20735;-69
2023/08/20 00:12:26;;;;;;;4.40;4.00;;;;;;;;;;4969176;28;20359;-69
2023/08/20 00:14:54;;;;;;;4.63;4.22;;;;;;;;;;4968777;28;20272;-69
2023/08/20 00:17:21;;;;;;;7.10;4.38;;;;;;;;;;4969085;28;20340;-68
2023/08/20 00:19:49;;;;;;;5.75;4.95;;;;;;;;;;4961331;28;20207;-68
2023/08/20 00:22:16;;;;;;;6.53;4.53;;;;;;;;;;4969160;28;20233;-68
2023/08/20 00:24:46;;;;;;;6.20;4.20;;;;;;;;;;4969368;28;20241;-67
2023/08/20 00:27:13;;;;;;;7.35;4.35;;;;;;;;;;4965726;28;20217;-67
2023/08/20 00:29:42;;;;;;;9.00;5.22;;;;;;;;;;4969082;28;20343;-67
2023/08/20 00:32:09;;;;;;;7.55;4.55;;;;;;;;;;4968993;28;20588;-68
2023/08/20 00:34:36;;;;;;;6.60;4.47;;;;;;;;;;4969084;28;20218;-68
2023/08/20 00:37:03;;;;;;;7.40;4.18;;;;;;;;;;4969220;28;20214;-68
2023/08/20 00:39:30;;;;;;;10.75;4.63;;;;;;;;;;4968682;28;20210;-68
2023/08/20 00:41:57;;;;;;;4.75;3.70;;;;;;;;;;4968632;28;20282;-68
2023/08/20 00:44:24;;;;;;;5.07;3.67;;;;;;;;;;4967264;28;20213;-67
2023/08/20 00:46:53;;;;;;;6.50;3.58;;;;;;;;;;4968343;28;20214;-68
2023/08/20 00:49:20;;;;;;;8.75;3.80;;;;;;;;;;4968624;28;20281;-67
2023/08/20 00:51:47;;;;;;;8.15;3.90;;;;;;;;;;4968913;28;20214;-68
2023/08/20 00:54:14;;;;;;;5.53;3.90;;;;;;;;;;4968466;28;20700;-68
2023/08/20 00:56:42;;;;;;;5.32;3.70;;;;;;;;;;4968221;28;20226;-68
2023/08/20 00:59:09;;;;;;;4.43;3.38;;;;;;;;;;4966396;28;20202;-67
2023/08/20 01:01:36;;;;;;;4.50;3.90;;;;;;;;;;4965742;28;20214;-67
2023/08/20 01:04:04;;;;;;;4.10;3.80;;;;;;;;;;4966282;28;20210;-67
2023/08/20 01:06:37;;;;;;;4.13;3.80;;;;;;;;;;4965947;28;20222;-67
2023/08/20 01:09:07;;;;;;;4.60;3.97;;;;;;;;;;4968321;28;20242;-67
2023/08/20 01:11:38;;;;;;;3.80;3.60;;;;;;;;;;4968217;28;20630;-67
2023/08/20 01:14:16;;;;;;;5.40;3.55;;;;;;;;;;4966392;28;20210;-67
2023/08/20 01:16:43;;;;;;;4.82;4.40;;;;;;;;;;4959259;28;20230;-68
2023/08/20 01:19:16;;;;;;;5.88;4.50;;;;;;;;;;4967796;28;20206;-67
2023/08/20 01:21:56;;;;;;;4.60;4.20;;;;;;;;;;4967971;28;20210;-67
2023/08/20 01:24:33;;;;;;;4.03;3.78;;;;;;;;;;4967976;28;20217;-67
2023/08/20 01:27:09;;;;;;;4.32;3.67;;;;;;;;;;4967464;28;20212;-67
2023/08/20 01:29:39;;;;;;;6.35;4.30;;;;;;;;;;4967504;28;20261;-67
2023/08/20 01:32:06;;;;;;;8.80;3.53;;;;;;;;;;4967954;28;20240;-67
2023/08/20 01:34:33;;;;;;;7.18;3.90;;;;;;;;;;4967572;28;20202;-68
2023/08/20 01:37:00;;;;;;;6.38;4.30;;;;;;;;;;4967310;28;20213;-67
2023/08/20 01:39:28;;;;;;;6.00;4.38;;;;;;;;;;4968110;28;20202;-66
2023/08/20 01:41:55;;;;;;;7.82;4.25;;;;;;;;;;4967262;28;20206;-67
2023/08/20 01:44:22;;;;;;;9.02;4.47;;;;;;;;;;4967618;28;20221;-67
2023/08/20 01:46:50;;;;;;;8.75;4.45;;;;;;;;;;4967236;28;20218;-66
2023/08/20 01:49:17;;;;;;;5.95;4.30;;;;;;;;;;4966664;28;20230;-67
2023/08/20 01:51:44;;;;;;;4.70;3.95;;;;;;;;;;4967327;28;20329;-67
2023/08/20 01:54:11;;;;;;;7.13;4.47;;;;;;;;;;4967178;28;20345;-67
2023/08/20 01:56:38;;;;;;;10.85;4.15;;;;;;;;;;4967384;28;20206;-67
2023/08/20 01:59:05;;;;;;;5.10;4.70;;;;;;;;;;4967007;28;20206;-68
2023/08/20 02:01:44;;;;;;;7.65;4.63;;;;;;;;;;4949170;28;20257;-67
2023/08/20 02:04:13;;;;;;;4.95;4.00;;;;;;;;;;4963152;28;20574;-67
2023/08/20 02:06:40;;;;;;;6.47;3.90;;;;;;;;;;4967066;28;20214;-67
2023/08/20 02:09:07;;;;;;;7.35;4.47;;;;;;;;;;4967220;28;20249;-67
2023/08/20 02:11:35;;;;;;;5.88;4.32;;;;;;;;;;4966960;28;20260;-67
2023/08/20 02:14:02;;;;;;;10.52;4.80;;;;;;;;;;4967018;28;20210;-67
2023/08/20 02:16:29;;;;;;;10.02;4.53;;;;;;;;;;4967245;28;20206;-66
2023/08/20 02:18:56;;;;;;;9.15;4.28;;;;;;;;;;4966854;28;20214;-67
2023/08/20 02:21:25;;;;;;;10.32;4.85;;;;;;;;;;4967218;28;20206;-67
2023/08/20 02:23:52;;;;;;;7.55;4.15;;;;;;;;;;4967494;28;20210;-67
2023/08/20 02:26:19;;;;;;;11.00;4.93;;;;;;;;;;4967254;28;20210;-67
2023/08/20 02:28:46;;;;;;;8.00;4.43;;;;;;;;;;4966916;28;20229;-67
2023/08/20 02:31:13;;;;;;;4.40;4.00;;;;;;;;;;4967264;28;20210;-67
2023/08/20 02:33:40;;;;;;;7.05;4.65;;;;;;;;;;4967146;28;20209;-67
2023/08/20 02:36:07;;;;;;;5.13;4.63;;;;;;;;;;4967447;28;20226;-67
2023/08/20 02:38:36;;;;;;;5.60;4.13;;;;;;;;;;4967098;28;20899;-68
2023/08/20 02:41:03;;;;;;;5.25;4.68;;;;;;;;;;4966936;28;20234;-67
2023/08/20 02:43:30;;;;;;;4.13;3.70;;;;;;;;;;4967436;28;20316;-67
2023/08/20 02:45:57;;;;;;;5.75;4.13;;;;;;;;;;4967305;28;20210;-67
2023/08/20 02:48:26;;;;;;;5.90;4.47;;;;;;;;;;4966368;28;20905;-68
2023/08/20 02:50:54;;;;;;;5.38;4.68;;;;;;;;;;4968549;28;20774;-67
2023/08/20 02:53:21;;;;;;;6.50;4.50;;;;;;;;;;4971321;28;20249;-67
2023/08/20 02:55:49;;;;;;;6.38;4.38;;;;;;;;;;4970166;28;20253;-67
2023/08/20 02:58:16;;;;;;;5.43;4.35;;;;;;;;;;4970624;28;20214;-66
2023/08/20 03:00:44;;;;;;;9.50;4.25;;;;;;;;;;4969802;28;20217;-66
2023/08/20 03:03:12;;;;;;;5.25;4.50;;;;;;;;;;4970916;28;20748;-66
2023/08/20 03:05:39;;;;;;;8.88;4.22;;;;;;;;;;4970691;28;20202;-65
2023/08/20 03:08:06;;;;;;;6.93;4.43;;;;;;;;;;4970088;28;20229;-68
2023/08/20 03:10:33;;;;;;;5.38;4.88;;;;;;;;;;4969075;28;20244;-65
2023/08/20 03:13:02;;;;;;;6.47;4.38;;;;;;;;;;4969799;28;20454;-65
2023/08/20 03:15:29;;;;;;;8.30;4.63;;;;;;;;;;4970265;28;20211;-66
2023/08/20 03:17:56;;;;;;;6.07;4.35;;;;;;;;;;4970249;28;20217;-66
2023/08/20 03:20:24;;;;;;;6.30;4.15;;;;;;;;;;4969391;28;20218;-66
2023/08/20 03:22:51;;;;;;;5.90;3.97;;;;;;;;;;4969858;28;20217;-68
2023/08/20 03:25:18;;;;;;;7.40;4.43;;;;;;;;;;4969579;28;20229;-66
2023/08/20 03:27:45;;;;;;;6.55;4.47;;;;;;;;;;4970420;28;20225;-66
2023/08/20 03:30:13;;;;;;;6.75;4.20;;;;;;;;;;4969314;28;20676;-65
2023/08/20 03:32:40;;;;;;;7.03;4.40;;;;;;;;;;4969424;28;20226;-66
2023/08/20 03:35:08;;;;;;;10.15;4.00;;;;;;;;;;4960048;28;20210;-65
2023/08/20 03:37:35;;;;;;;8.35;4.70;;;;;;;;;;4969640;28;20205;-65
2023/08/20 03:40:04;;;;;;;5.40;4.90;;;;;;;;;;4969854;28;20572;-66
2023/08/20 03:42:31;;;;;;;14.63;4.28;;;;;;;;;;4969192;28;20371;-66
2023/08/20 03:44:58;;;;;;;4.63;4.22;;;;;;;;;;4970178;28;20221;-66
2023/08/20 03:47:27;;;;;;;9.10;5.05;;;;;;;;;;4969587;28;20983;-66
2023/08/20 03:49:54;;;;;;;12.45;4.35;;;;;;;;;;4969381;28;20242;-67
2023/08/20 03:52:21;;;;;;;8.63;4.30;;;;;;;;;;4969094;28;20206;-65
2023/08/20 03:54:48;;;;;;;6.43;4.20;;;;;;;;;;4969773;28;20210;-65
2023/08/20 03:57:15;;;;;;;7.03;4.82;;;;;;;;;;4969720;28;20202;-68
2023/08/20 03:59:42;;;;;;;5.63;4.05;;;;;;;;;;4968957;28;20199;-66
2023/08/20 04:02:09;;;;;;;4.30;4.00;;;;;;;;;;4967193;28;20919;-67
2023/08/20 04:04:37;;;;;;;12.05;4.90;;;;;;;;;;4969006;28;20206;-67
2023/08/20 04:07:04;;;;;;;4.68;4.28;;;;;;;;;;4969624;28;20603;-67
2023/08/20 04:09:33;;;;;;;8.50;4.88;;;;;;;;;;4969300;28;20230;-67
2023/08/20 04:12:00;;;;;;;4.25;3.85;;;;;;;;;;4968772;28;20238;-68
2023/08/20 04:14:27;;;;;;;6.22;4.18;;;;;;;;;;4969750;28;20241;-67
2023/08/20 04:16:54;;;;;;;4.40;3.97;;;;;;;;;;4969362;28;20703;-67
2023/08/20 04:19:22;;;;;;;6.50;4.53;;;;;;;;;;4969157;28;20211;-68
2023/08/20 04:21:51;;;;;;;8.05;4.57;;;;;;;;;;4970074;28;20206;-67
2023/08/20 04:24:18;;;;;;;4.40;4.00;;;;;;;;;;4970044;28;20579;-68
2023/08/20 04:26:45;;;;;;;6.43;4.18;;;;;;;;;;4969824;28;20221;-67
2023/08/20 04:29:12;;;;;;;7.25;4.15;;;;;;;;;;4970055;28;20237;-67
2023/08/20 04:31:39;;;;;;;6.20;4.63;;;;;;;;;;4969886;28;20214;-68
2023/08/20 04:34:06;;;;;;;5.95;4.40;;;;;;;;;;4968502;28;20211;-65
2023/08/20 04:36:33;;;;;;;5.88;4.10;;;;;;;;;;4969634;28;20202;-65
2023/08/20 04:39:02;;;;;;;7.88;4.07;;;;;;;;;;4970074;28;20572;-65
2023/08/20 04:41:29;;;;;;;6.82;4.13;;;;;;;;;;4969179;28;20233;-64
2023/08/20 04:43:56;;;;;;;7.93;4.57;;;;;;;;;;4969183;28;20564;-63
2023/08/20 04:46:23;;;;;;;5.60;4.18;;;;;;;;;;4969162;28;20218;-63
2023/08/20 04:48:50;;;;;;;5.53;4.57;;;;;;;;;;4969421;28;20214;-63
2023/08/20 04:51:17;;;;;;;6.60;4.22;;;;;;;;;;4964953;28;20622;-64
2023/08/20 04:53:44;;;;;;;4.57;4.05;;;;;;;;;;4968782;28;20237;-65
2023/08/20 04:56:12;;;;;;;6.13;3.92;;;;;;;;;;4969271;28;20221;-65
2023/08/20 04:58:39;;;;;;;6.53;4.25;;;;;;;;;;4969154;28;20291;-65
2023/08/20 05:01:08;;;;;;;6.93;4.00;;;;;;;;;;4968900;28;20209;-65
2023/08/20 05:03:35;;;;;;;4.25;3.95;;;;;;;;;;4968627;28;20641;-65
2023/08/20 05:06:03;;;;;;;5.50;3.60;;;;;;;;;;4968846;28;20210;-65
2023/08/20 05:08:30;;;;;;;7.00;4.00;;;;;;;;;;4965903;28;20202;-65
2023/08/20 05:10:57;;;;;;;7.63;4.47;;;;;;;;;;4960288;28;20230;-65
2023/08/20 05:13:25;;;;;;;4.68;4.30;;;;;;;;;;4968156;28;20214;-65
2023/08/20 05:15:52;;;;;;;4.82;4.40;;;;;;;;;;4968665;28;20210;-65
2023/08/20 05:18:19;;;;;;;4.90;4.03;;;;;;;;;;4967959;28;20206;-65
2023/08/20 05:20:46;;;;;;;5.00;4.32;;;;;;;;;;4968343;28;20206;-65
2023/08/20 05:23:13;;;;;;;4.90;4.50;;;;;;;;;;4968666;28;20209;-65
2023/08/20 05:25:40;;;;;;;7.65;4.28;;;;;;;;;;4968546;28;20210;-65
2023/08/20 05:28:08;;;;;;;5.00;4.22;;;;;;;;;;4968396;28;20664;-65
2023/08/20 05:30:36;;;;;;;4.72;4.13;;;;;;;;;;4968170;28;21745;-65
2023/08/20 05:33:03;;;;;;;6.57;4.30;;;;;;;;;;4968397;28;20729;-65
2023/08/20 05:35:30;;;;;;;4.78;4.47;;;;;;;;;;4968580;28;20206;-65
2023/08/20 05:37:57;;;;;;;5.57;5.05;;;;;;;;;;4966753;28;20215;-63
2023/08/20 05:40:24;;;;;;;5.32;4.13;;;;;;;;;;4968489;28;20198;-65
2023/08/20 05:42:51;;;;;;;6.05;4.32;;;;;;;;;;4968534;28;20479;-65
2023/08/20 05:45:18;;;;;;;5.82;4.88;;;;;;;;;;4968120;28;20214;-65
2023/08/20 05:47:47;;;;;;;5.93;4.55;;;;;;;;;;4967933;28;20214;-65
2023/08/20 05:50:14;;;;;;;5.65;4.50;;;;;;;;;;4967795;28;20259;-65
2023/08/20 05:52:41;;;;;;;7.22;4.80;;;;;;;;;;4967800;28;20217;-66
2023/08/20 05:55:08;;;;;;;5.45;4.60;;;;;;;;;;4967492;28;20233;-65
2023/08/20 05:57:36;;;;;;;5.40;4.88;;;;;;;;;;4967890;28;20218;-65
2023/08/20 06:00:04;;;;;;;6.72;4.50;;;;;;;;;;4965213;28;20210;-65
2023/08/20 06:02:31;;;;;;;4.70;4.20;;;;;;;;;;4966416;28;20242;-65
2023/08/20 06:05:00;;;;;;;4.65;4.25;;;;;;;;;;4967606;28;20214;-66
2023/08/20 06:07:27;;;;;;;6.70;4.15;;;;;;;;;;4966811;28;20301;-66
2023/08/20 06:09:54;;;;;;;8.75;4.40;;;;;;;;;;4967194;28;20233;-63
2023/08/20 06:12:21;;;;;;;4.43;4.03;;;;;;;;;;4966810;28;20238;-64
2023/08/20 06:14:49;;;;;;;5.60;4.15;;;;;;;;;;4967041;28;20211;-63
2023/08/20 06:17:16;;;;;;;6.18;4.65;;;;;;;;;;4966657;28;20563;-63
2023/08/20 06:19:43;;;;;;;10.63;4.45;;;;;;;;;;4966477;28;20436;-63
2023/08/20 06:22:11;;;;;;;7.30;4.50;;;;;;;;;;4967534;28;20221;-63
2023/08/20 06:24:38;;;;;;;6.45;4.60;;;;;;;;;;4967925;28;20218;-66
2023/08/20 06:27:05;;;;;;;8.52;4.80;;;;;;;;;;4971382;28;20206;-66
2023/08/20 06:29:32;;;;;;;6.85;5.00;;;;;;;;;;4971730;28;20214;-66
2023/08/20 06:31:59;;;;;;;6.20;4.88;;;;;;;;;;4971261;28;20210;-65
2023/08/20 06:34:26;;;;;;;6.07;4.20;;;;;;;;;;4971178;28;20217;-66
2023/08/20 06:36:54;;;;;;;4.82;4.43;;;;;;;;;;4971343;28;20564;-66
2023/08/20 06:39:22;;;;;;;4.60;4.10;;;;;;;;;;4971437;28;20214;-66
2023/08/20 06:41:49;;;;;;;5.28;4.90;;;;;;;;;;4970585;28;20202;-63
2023/08/20 06:44:16;;;;;;;7.93;4.90;;;;;;;;;;4971000;28;20383;-63
2023/08/20 06:46:43;;;;;;;7.00;4.80;;;;;;;;;;4971289;28;20206;-63
2023/08/20 06:49:10;;;;;;;5.15;4.75;;;;;;;;;;4970655;28;20214;-63
2023/08/20 06:51:37;;;;;;;8.43;4.50;;;;;;;;;;4968850;28;20540;-63
2023/08/20 06:54:06;;;;;;;4.90;4.50;;;;;;;;;;4970911;28;20218;-63
2023/08/20 06:56:34;;;;;;;6.88;5.25;;;;;;;;;;4970482;28;20396;-64
2023/08/20 06:59:03;;;;;;;4.70;4.28;;;;;;;;;;4969601;28;20206;-64
2023/08/20 07:01:30;;;;;;;8.27;4.70;;;;;;;;;;4969413;28;20206;-63
2023/08/20 07:03:57;;;;;;;4.88;4.50;;;;;;;;;;4969802;28;20681;-63
2023/08/20 07:06:24;;;;;;;6.28;5.05;;;;;;;;;;4970034;28;20303;-63
2023/08/20 07:08:51;;;;;;;5.25;4.30;;;;;;;;;;4970716;28;20645;-63
2023/08/20 07:11:18;;;;;;;4.80;4.50;;;;;;;;;;4969762;28;20257;-64
2023/08/20 07:13:46;;;;;;;4.47;4.28;;;;;;;;;;4968740;28;20236;-64
2023/08/20 07:16:13;;;;;;;7.13;4.10;;;;;;;;;;4969660;28;20217;-65
2023/08/20 07:18:40;;;;;;;4.80;4.43;;;;;;;;;;4970471;28;20214;-61
2023/08/20 07:21:08;;;;;;;5.18;4.70;;;;;;;;;;4970218;28;20206;-65
2023/08/20 07:23:35;;;;;;;7.13;5.18;;;;;;;;;;4962226;28;20720;-65
2023/08/20 07:26:15;;;;;;;6.63;4.82;;;;;;;;;;4970349;28;20213;-63
2023/08/20 07:28:58;;;;;;;7.22;4.40;;;;;;;;;;4969981;28;20297;-66
2023/08/20 07:31:26;;;;;;;7.00;4.68;;;;;;;;;;4952335;28;20230;-64
2023/08/20 07:33:54;;;;;;;5.28;4.78;;;;;;;;;;4968996;28;20300;-63
2023/08/20 07:36:22;;;;;;;5.22;4.80;;;;;;;;;;4969160;28;20206;-63
2023/08/20 07:38:49;;;;;;;4.90;4.18;;;;;;;;;;4970019;28;20832;-63
2023/08/20 07:41:17;;;;;;;6.25;4.90;;;;;;;;;;4969145;28;20221;-63
2023/08/20 07:43:44;;;;;;;5.78;5.35;;;;;;;;;;4969940;28;20238;-62
2023/08/20 07:46:11;;;;;;;5.75;5.22;;;;;;;;;;4970073;28;20237;-63
2023/08/20 07:48:40;;;;;;;7.82;4.80;;;;;;;;;;4969738;28;20214;-63
2023/08/20 07:51:07;;;;;;;5.50;5.10;;;;;;;;;;4968989;28;20226;-61
2023/08/20 07:53:35;;;;;;;5.55;5.13;;;;;;;;;;4970132;28;20569;-64
2023/08/20 07:56:02;;;;;;;5.50;5.10;;;;;;;;;;4969747;28;20957;-62
2023/08/20 07:58:29;;;;;;;6.00;5.60;;;;;;;;;;4967846;28;20897;-62
2023/08/20 08:00:57;;;;;;;6.30;5.53;;;;;;;;;;4965447;28;20207;-62
2023/08/20 08:03:26;;;;;;;5.90;5.50;;;;;;;;;;4970381;28;20218;-63
2023/08/20 08:05:55;;;;;;;6.00;5.50;;;;;;;;;;4968518;28;20242;-63
2023/08/20 08:08:22;;;;;;;5.82;5.15;;;;;;;;;;4969765;28;20217;-63
2023/08/20 08:10:49;;;;;;;5.40;4.95;;;;;;;;;;4969720;28;20273;-63
2023/08/20 08:13:20;;;;;;;7.03;5.18;;;;;;;;;;4967518;28;20214;-63
2023/08/20 08:15:47;;;;;;;5.47;5.07;;;;;;;;;;4969283;28;20214;-63
2023/08/20 08:18:14;;;;;;;5.70;5.30;;;;;;;;;;4968181;28;20218;-63
2023/08/20 08:20:47;;;;;;;5.50;5.00;;;;;;;;;;4968922;28;20681;-63
2023/08/20 08:23:16;;;;;;;6.93;5.60;;;;;;;;;;4968756;28;20643;-63
2023/08/20 08:25:43;;;;;;;5.82;5.25;;;;;;;;;;4968634;28;20206;-63
2023/08/20 08:28:10;;;;;;;9.05;5.20;;;;;;;;;;4968449;28;20217;-64
2023/08/20 08:30:37;;;;;;;5.72;5.22;;;;;;;;;;4967578;28;20226;-63
2023/08/20 08:33:04;;;;;;;7.90;5.82;;;;;;;;;;4956614;28;20215;-62
2023/08/20 08:35:31;;;;;;;5.55;5.13;;;;;;;;;;4956855;28;20219;-63
2023/08/20 08:37:58;;;;;;;5.20;4.65;;;;;;;;;;4964356;28;20648;-64
2023/08/20 08:40:29;;;;;;;9.23;5.50;;;;;;;;;;4967629;28;20198;-64
2023/08/20 08:42:56;;;;;;;5.82;5.05;;;;;;;;;;4963433;28;20221;-63
2023/08/20 08:45:24;;;;;;;5.43;5.03;;;;;;;;;;4967141;28;20218;-63
2023/08/20 08:47:51;;;;;;;5.75;5.35;;;;;;;;;;4964431;28;20245;-64
2023/08/20 08:50:18;;;;;;;5.30;4.90;;;;;;;;;;4965126;28;20221;-64
2023/08/20 08:52:46;;;;;;;5.13;4.90;;;;;;;;;;4967852;28;20214;-63
2023/08/20 08:55:13;;;;;;;6.10;5.50;;;;;;;;;;4965948;28;20218;-64
2023/08/20 08:57:42;;;;;;;5.60;5.10;;;;;;;;;;4965244;28;20210;-64
2023/08/20 09:00:09;;;;;;;8.48;5.43;;;;;;;;;;4955399;28;20215;-63
2023/08/20 09:02:36;;;;;;;5.50;5.10;;;;;;;;;;4959221;28;20208;-63
2023/08/20 09:05:03;;;;;;;5.95;5.55;;;;;;;;;;4966194;28;20210;-63
2023/08/20 09:07:31;;;;;;;4.93;4.63;;;;;;;;;;4967226;28;20217;-63
2023/08/20 09:10:00;;;;;;;5.45;5.10;;;;;;;;;;4952748;28;20257;-64
2023/08/20 09:12:27;;;;;;;5.40;5.00;;;;;;;;;;4966285;28;20246;-64
2023/08/20 09:15:00;;;;;;;4.93;4.53;;;;;;;;;;4961430;28;20926;-63
2023/08/20 09:17:28;;;;;;;5.13;4.63;;;;;;;;;;4965154;28;20672;-63
2023/08/20 09:19:57;;;;;;;5.35;4.93;;;;;;;;;;4955199;28;20934;-63
2023/08/20 09:22:24;;;;;;;5.05;4.60;;;;;;;;;;4963711;28;20234;-64
2023/08/20 09:24:54;;;;;;;5.43;4.93;;;;;;;;;;4966054;28;20210;-64
2023/08/20 09:27:21;;;;;;;5.95;4.90;;;;;;;;;;4966922;28;20245;-62
2023/08/20 09:29:49;;;;;;;5.47;5.05;;;;;;;;;;4959845;28;20250;-63
2023/08/20 09:32:18;;;;;;;5.80;5.18;;;;;;;;;;4965943;28;20730;-64
2023/08/20 09:34:45;;;;;;;4.75;4.45;;;;;;;;;;4965680;28;20211;-65
2023/08/20 09:37:13;;;;;;;7.28;5.05;;;;;;;;;;4966850;28;20218;-65
2023/08/20 09:39:41;;;;;;;5.32;4.85;;;;;;;;;;4955248;28;20221;-65
2023/08/20 09:42:08;;;;;;;5.00;4.68;;;;;;;;;;4964602;28;20665;-65
2023/08/20 09:44:36;;;;;;;9.43;5.30;;;;;;;;;;4964629;28;20209;-65
2023/08/20 09:47:04;;;;;;;5.80;4.60;;;;;;;;;;4964841;28;20218;-65
2023/08/20 09:49:37;;;;;;;5.00;4.45;;;;;;;;;;4965904;28;20206;-66
2023/08/20 09:52:05;;;;;;;4.45;4.15;;;;;;;;;;4964276;28;20239;-67
2023/08/20 09:54:48;;;;;;;5.00;4.70;;;;;;;;;;4963559;28;20218;-67
2023/08/20 09:57:20;;;;;;;5.43;4.93;;;;;;;;;;4964011;28;20708;-67
2023/08/20 09:59:48;;;;;;;5.25;4.85;;;;;;;;;;4964258;28;20855;-67
2023/08/20 10:02:15;;;;;;;5.47;5.05;;;;;;;;;;4965432;28;20203;-67
2023/08/20 10:04:44;;;;;;;4.80;4.45;;;;;;;;;;4962987;28;20217;-67
2023/08/20 10:07:11;;;;;;;4.78;4.57;;;;;;;;;;4965358;28;20321;-67
2023/08/20 10:09:39;;;;;;;4.97;4.53;;;;;;;;;;4965245;28;20234;-68
2023/08/20 10:12:07;;;;;;;4.43;4.07;;;;;;;;;;4963790;28;20237;-68
2023/08/20 10:14:34;;;;;;;5.20;4.75;;;;;;;;;;4964846;28;20206;-67
2023/08/20 10:17:07;;;;;;;4.75;4.45;;;;;;;;;;4964901;28;20239;-66
2023/08/20 10:19:34;;;;;;;5.00;4.63;;;;;;;;;;4964934;28;20584;-67
2023/08/20 10:22:03;;;;;;;4.50;4.18;;;;;;;;;;4961417;28;20207;-66
2023/08/20 10:24:32;;;;;;;4.13;3.83;;;;;;;;;;4962019;28;20213;-67
2023/08/20 10:27:09;;;;;;;4.50;4.20;;;;;;;;;;4960049;28;20231;-66
2023/08/20 10:29:37;;;;;;;3.85;3.55;;;;;;;;;;4964636;28;20213;-67
2023/08/20 10:32:05;;;;;;;5.47;4.38;;;;;;;;;;4964751;28;20264;-67
2023/08/20 10:34:35;;;;;;;4.18;3.88;;;;;;;;;;4959431;28;20224;-68
2023/08/20 10:37:04;;;;;;;4.20;3.88;;;;;;;;;;4959933;28;20214;-68
2023/08/20 10:39:32;;;;;;;4.68;4.38;;;;;;;;;;4964335;28;20213;-68
2023/08/20 10:42:23;;;;;;;4.32;4.10;;;;;;;;;;4964873;28;20209;-73
2023/08/20 10:45:00;;;;;;;4.43;4.10;;;;;;;;;;4963921;28;20210;-67
2023/08/20 10:47:27;;;;;;;4.20;3.90;;;;;;;;;;4964087;28;20209;-67
2023/08/20 10:49:54;;;;;;;4.60;4.30;;;;;;;;;;4965420;28;20209;-67
2023/08/20 10:52:23;;;;;;;5.97;4.65;;;;;;;;;;4962817;28;20232;-67
2023/08/20 10:54:52;;;;;;;4.45;4.20;;;;;;;;;;4966022;28;20210;-67
2023/08/20 10:57:21;;;;;;;4.30;4.10;;;;;;;;;;4965617;28;20699;-67
2023/08/20 10:59:57;;;;;;;4.03;3.83;;;;;;;;;;4965104;28;20220;-67
2023/08/20 11:02:24;;;;;;;4.03;3.78;;;;;;;;;;4963687;28;20201;-68
2023/08/20 11:04:51;;;;;;;4.32;4.00;;;;;;;;;;4965972;28;20695;-68
2023/08/20 11:07:19;;;;;;;4.20;3.72;;;;;;;;;;4965990;28;20237;-68
2023/08/20 11:09:48;;;;;;;5.45;3.83;;;;;;;;;;4965341;28;20239;-67
2023/08/20 11:12:16;;;;;;;5.03;3.95;;;;;;;;;;4967223;28;20238;-68
2023/08/20 11:14:43;;;;;;;4.30;3.72;;;;;;;;;;4969068;28;20214;-68
2023/08/20 11:17:10;;;;;;;4.43;3.53;;;;;;;;;;4969065;28;20210;-67
2023/08/20 11:19:37;;;;;;;4.07;3.70;;;;;;;;;;4969156;28;20209;-68
2023/08/20 11:22:04;;;;;;;4.35;3.95;;;;;;;;;;4968783;28;20719;-67
2023/08/20 11:24:32;;;;;;;3.72;3.42;;;;;;;;;;4969341;28;20615;-67
2023/08/20 11:27:00;;;;;;;4.53;4.15;;;;;;;;;;4969380;28;20213;-67
2023/08/20 11:29:27;;;;;;;4.35;3.97;;;;;;;;;;4968763;28;20205;-68
2023/08/20 11:31:55;;;;;;;3.90;3.70;;;;;;;;;;4968212;28;20233;-67
2023/08/20 11:34:22;;;;;;;4.00;3.17;;;;;;;;;;4967250;28;20205;-67
2023/08/20 11:36:49;;;;;;;4.13;3.83;;;;;;;;;;4966994;28;20214;-67
2023/08/20 11:39:17;;;;;;;4.13;3.83;;;;;;;;;;4968635;28;20210;-67
2023/08/20 11:41:45;;;;;;;3.70;3.50;;;;;;;;;;4968291;28;20460;-68
2023/08/20 11:44:21;;;;;;;3.88;3.67;;;;;;;;;;4968188;28;20205;-67
2023/08/20 11:46:48;;;;;;;4.28;3.90;;;;;;;;;;4965465;28;20213;-67
2023/08/20 11:49:15;;;;;;;3.70;3.60;;;;;;;;;;4964780;28;20218;-67
2023/08/20 11:51:44;;;;;;;3.70;3.50;;;;;;;;;;4968212;28;20232;-65
2023/08/20 11:54:12;;;;;;;4.43;4.13;;;;;;;;;;4967688;28;20260;-66
2023/08/20 11:56:45;;;;;;;4.63;3.90;;;;;;;;;;4968392;28;20224;-65
2023/08/20 11:59:14;;;;;;;4.72;4.30;;;;;;;;;;4964551;28;20241;-65
2023/08/20 12:01:41;;;;;;;4.28;3.95;;;;;;;;;;4963416;28;20660;-65
2023/08/20 12:04:09;;;;;;;3.35;3.25;;;;;;;;;;4967094;28;20231;-65
2023/08/20 12:06:37;;;;;;;4.20;3.90;;;;;;;;;;4962524;28;20217;-65
2023/08/20 12:09:20;;;;;;;4.10;3.88;;;;;;;;;;4958967;28;20240;-65
2023/08/20 12:11:49;;;;;;;4.07;3.80;;;;;;;;;;4959614;28;20233;-66
2023/08/20 12:19:29;;;;;;;3.90;3.60;;;;;;;;;;5199737;23;20306;-77
2023/08/20 12:21:56;;;;;;;4.15;3.90;;;;;;;;;;4952685;28;20198;-78
2023/08/20 12:24:23;;;;;;;3.88;3.72;;;;;;;;;;4961519;28;20784;-76
2023/08/20 12:26:51;;;;;;;4.47;3.60;;;;;;;;;;4964897;28;20205;-76
2023/08/20 12:29:18;;;;;;;4.22;3.88;;;;;;;;;;4966821;28;20205;-77
2023/08/20 12:31:45;;;;;;;3.83;3.63;;;;;;;;;;4949065;28;20242;-76
2023/08/20 12:34:12;;;;;;;4.47;3.60;;;;;;;;;;4948361;28;20222;-75
2023/08/20 12:36:40;;;;;;;4.13;3.92;;;;;;;;;;4948976;29;20211;-75
2023/08/20 12:39:08;;;;;;;3.22;3.13;;;;;;;;;;4948800;28;20215;-76
2023/08/20 12:41:36;;;;;;;3.80;3.50;;;;;;;;;;4948756;28;20755;-79
2023/08/20 12:44:03;;;;;;;4.20;3.90;;;;;;;;;;4948377;28;20269;-79
2023/08/20 12:46:30;;;;;;;4.47;3.95;;;;;;;;;;4948685;28;20210;-79
2023/08/20 12:48:57;;;;;;;4.30;3.95;;;;;;;;;;4948903;28;20256;-79
2023/08/20 12:51:24;;;;;;;3.47;3.30;;;;;;;;;;4948553;28;20271;-79
2023/08/20 12:53:52;;;;;;;4.85;3.70;;;;;;;;;;4948793;28;20277;-79
2023/08/20 12:56:19;;;;;;;5.63;3.55;;;;;;;;;;4948277;28;20680;-78
2023/08/20 12:58:46;;;;;;;3.58;3.05;;;;;;;;;;4948050;28;20218;-79
2023/08/20 13:01:13;;;;;;;3.70;3.50;;;;;;;;;;4942029;28;20907;-74
2023/08/20 13:03:41;;;;;;;3.95;3.75;;;;;;;;;;4947834;28;20587;-80
2023/08/20 13:06:08;;;;;;;4.70;4.30;;;;;;;;;;4945438;28;20217;-66
2023/08/20 13:08:35;;;;;;;3.30;3.17;;;;;;;;;;4946875;28;20706;-66
2023/08/20 13:11:04;;;;;;;3.72;3.47;;;;;;;;;;4948078;28;20225;-66
2023/08/20 13:13:34;;;;;;;3.20;3.00;;;;;;;;;;4947774;29;20222;-66
2023/08/20 13:16:01;;;;;;;3.97;3.05;;;;;;;;;;4948074;28;20752;-66
2023/08/20 13:18:29;;;;;;;5.00;3.17;;;;;;;;;;4947185;28;20241;-66
2023/08/20 13:20:56;;;;;;;4.18;3.80;;;;;;;;;;4948255;28;20696;-66
2023/08/20 13:23:23;;;;;;;3.67;3.42;;;;;;;;;;4948496;28;20217;-66
2023/08/20 13:25:50;;;;;;;3.25;3.15;;;;;;;;;;4947891;28;20241;-66
2023/08/20 13:28:19;;;;;;;3.30;3.00;;;;;;;;;;4948536;28;20584;-66
2023/08/20 13:30:46;;;;;;;3.65;3.53;;;;;;;;;;4948396;28;20218;-66
2023/08/20 13:33:13;;;;;;;3.95;3.38;;;;;;;;;;4948383;28;20601;-66
2023/08/20 13:35:41;;;;;;;3.35;3.10;;;;;;;;;;4946654;28;20210;-66
2023/08/20 13:38:08;;;;;;;3.45;3.25;;;;;;;;;;4948188;28;20455;-66
2023/08/20 13:40:35;;;;;;;3.50;3.20;;;;;;;;;;4947836;28;20222;-66
2023/08/20 13:43:03;;;;;;;3.13;2.83;;;;;;;;;;4948275;28;20203;-67
2023/08/20 13:45:31;;;;;;;3.45;3.25;;;;;;;;;;4947421;28;20715;-66
2023/08/20 13:47:58;;;;;;;3.00;2.80;;;;;;;;;;4948123;28;20842;-66
2023/08/20 13:50:25;;;;;;;3.15;2.92;;;;;;;;;;4947912;28;20206;-66
2023/08/20 13:52:52;;;;;;;3.30;3.10;;;;;;;;;;4948266;28;20291;-66
2023/08/20 13:55:21;;;;;;;3.75;3.50;;;;;;;;;;4945838;28;20214;-66
2023/08/20 13:57:48;;;;;;;4.93;3.42;;;;;;;;;;4946024;28;20314;-66
2023/08/20 14:00:15;;;;;;;3.05;2.95;;;;;;;;;;4946247;28;20214;-66
2023/08/20 14:02:43;;;;;;;2.75;2.60;;;;;;;;;;4945656;28;20209;-66
2023/08/20 14:05:10;;;;;;;2.50;2.40;;;;;;;;;;4943021;28;20217;-63
2023/08/20 14:07:38;;;;;;;3.08;2.75;;;;;;;;;;4942422;28;20213;-65
2023/08/20 14:10:05;;;;;;;3.97;3.00;;;;;;;;;;4942596;28;20237;-65
2023/08/20 14:12:32;;;;;;;2.60;2.50;;;;;;;;;;4941548;28;20222;-65
2023/08/20 14:15:00;;;;;;;4.53;2.65;;;;;;;;;;4943192;28;20237;-65
2023/08/20 14:17:27;;;;;;;3.80;2.70;;;;;;;;;;4944231;28;20241;-65
2023/08/20 14:19:55;;;;;;;2.95;2.65;;;;;;;;;;4943527;29;20732;-64
2023/08/20 14:22:22;;;;;;;4.50;2.53;;;;;;;;;;4947348;28;20214;-64
2023/08/20 14:24:49;;;;;;;3.03;2.92;;;;;;;;;;4946733;29;20210;-65
2023/08/20 14:27:16;;;;;;;2.88;2.70;;;;;;;;;;4944449;28;20330;-64
2023/08/20 14:29:43;;;;;;;2.83;2.78;;;;;;;;;;4946876;28;20886;-65
2023/08/20 14:32:10;;;;;;;2.90;2.70;;;;;;;;;;4946956;28;20249;-64
2023/08/20 14:34:37;;;;;;;3.13;2.88;;;;;;;;;;4946927;28;20325;-64
2023/08/20 14:37:06;;;;;;;2.80;2.70;;;;;;;;;;4947173;28;20215;-65
2023/08/20 14:39:33;;;;;;;3.05;2.85;;;;;;;;;;4945189;28;20301;-63
2023/08/20 14:42:02;;;;;;;2.60;2.50;;;;;;;;;;4946830;28;20214;-65
2023/08/20 14:44:29;;;;;;;2.78;2.67;;;;;;;;;;4946512;28;20219;-65
2023/08/20 14:46:56;;;;;;;3.22;2.90;;;;;;;;;;4948880;28;20217;-65
2023/08/20 14:49:23;;;;;;;2.92;2.72;;;;;;;;;;4949164;28;20218;-65
2023/08/20 14:51:50;;;;;;;3.15;2.90;;;;;;;;;;4946985;28;20586;-65